Skip Navigation Links Skip Navigation Links

Current Weather

Joliet Regional, Joliet, Ill.

For information only: do not use for flight planning or navigation.
Latest weather
Observation time Tuesday, December 1, 2020 8:15 AM CST
Local time Tuesday, December 1, 2020 8:43 AM CST
Flight conditions Visual Meteorological Conditions
Winds
Wind direction North-Northwest (330°)
Wind speed 10 mph
Visibility 10 mi.
Sky condition
Ceiling unlimited
Sky clear
Temperature 24°F
Dewpoint 18°F
Altimeter 30.08 in.Hg
Derived measurements
Relative humidity 78%
Wind chill 13°F
Density altitude -1955 ft.
Remarks
Fully automated report.
Automated weather observing station with precipitation discriminator.
METAR KJOT 011415Z AUTO 33009KT 10SM CLR M04/M08 A3008 RMK AO2 T10451078

Settings

Location code

InnerDrive.Weather 4.0.6770.0 Release CLR 4.0.30319.42000
Copyright ©2018 Inner Drive Technology. All rights reserved. Portions Copyright ©1986-2018 David Braverman.

Find weather

Site navigation


Skip Navigation Links

Place info

Page info

PayPal - The safer, easier way to pay online!

Return home.

Copyright ©2020 Inner Drive Technology. Purveyors of fine, hand-crafted computer software. Page printed 2020-12-01T14:43:43 UTC.